createdAt,value
2023-02-19T00:00:24.688Z,58.93
2023-02-19T00:02:56.104Z,59.20
2023-02-19T00:05:24.498Z,60.07
2023-02-19T00:07:52.923Z,57.03
2023-02-19T00:10:21.304Z,58.23
2023-02-19T00:12:49.691Z,58.73
2023-02-19T00:15:18.210Z,57.73
2023-02-19T00:17:46.618Z,57.50
2023-02-19T00:20:16.575Z,58.13
2023-02-19T00:22:44.962Z,56.50
2023-02-19T00:25:13.378Z,58.73
2023-02-19T00:27:41.760Z,57.07
2023-02-19T00:30:10.716Z,58.47
2023-02-19T00:32:39.184Z,55.23
2023-02-19T00:35:07.877Z,57.80
2023-02-19T00:37:37.675Z,59.33
2023-02-19T00:40:06.287Z,59.93
2023-02-19T00:42:34.702Z,60.67
2023-02-19T00:45:03.156Z,56.67
2023-02-19T00:47:31.680Z,57.63
2023-02-19T00:50:00.082Z,57.90
2023-02-19T00:52:28.486Z,59.47
2023-02-19T00:54:58.443Z,58.40
2023-02-19T00:57:26.851Z,58.70
2023-02-19T00:59:55.231Z,62.40
2023-02-19T01:02:23.806Z,59.43
2023-02-19T01:04:52.235Z,60.73
2023-02-19T01:07:20.720Z,58.87
2023-02-19T01:09:49.158Z,60.83
2023-02-19T01:12:19.168Z,59.37
2023-02-19T01:14:47.661Z,58.77
2023-02-19T01:17:16.072Z,58.57
2023-02-19T01:19:44.527Z,59.60
2023-02-19T01:22:12.899Z,59.63
2023-02-19T01:24:41.355Z,58.33
2023-02-19T01:27:09.744Z,56.80
2023-02-19T01:29:39.664Z,57.37
2023-02-19T01:32:08.153Z,57.37
2023-02-19T01:34:36.624Z,58.73
2023-02-19T01:37:05.800Z,59.03
2023-02-19T01:39:34.325Z,59.83
2023-02-19T01:42:03.205Z,58.30
2023-02-19T01:44:50.323Z,60.00
2023-02-19T01:47:20.723Z,57.90
2023-02-19T01:49:51.534Z,60.23
2023-02-19T01:52:22.587Z,59.00
2023-02-19T01:54:52.075Z,61.67
2023-02-19T01:57:22.629Z,60.17
2023-02-19T01:59:54.997Z,62.07
2023-02-19T02:02:25.132Z,58.67
2023-02-19T02:04:53.894Z,59.97
2023-02-19T02:07:40.591Z,60.83
2023-02-19T02:10:21.557Z,57.93
2023-02-19T02:12:50.352Z,57.97
2023-02-19T02:15:19.449Z,60.27
2023-02-19T02:17:53.585Z,64.00
2023-02-19T02:20:29.679Z,62.00
2023-02-19T02:23:01.776Z,59.40
2023-02-19T02:25:46.571Z,63.07
2023-02-19T02:28:27.725Z,59.90
2023-02-19T02:30:58.267Z,57.77
2023-02-19T02:33:30.632Z,57.13
2023-02-19T02:36:01.398Z,59.30
2023-02-19T02:38:31.069Z,58.83
2023-02-19T02:40:59.678Z,59.93
2023-02-19T02:43:28.143Z,61.97
2023-02-19T02:45:58.498Z,62.03
2023-02-19T02:48:29.972Z,59.63
2023-02-19T02:51:01.258Z,60.60
2023-02-19T02:53:49.323Z,59.80
2023-02-19T02:56:18.921Z,58.63
2023-02-19T02:58:48.394Z,63.40
2023-02-19T03:01:37.844Z,58.57
2023-02-19T03:04:07.889Z,58.27
2023-02-19T03:06:37.148Z,60.13
2023-02-19T03:09:09.776Z,62.23
2023-02-19T03:11:57.365Z,63.37
2023-02-19T03:14:47.032Z,60.00
2023-02-19T03:17:36.337Z,58.93
2023-02-19T03:20:06.924Z,59.27
2023-02-19T03:22:36.423Z,61.43
2023-02-19T03:25:24.807Z,61.47
2023-02-19T03:27:53.510Z,61.90
2023-02-19T03:30:23.448Z,61.87
2023-02-19T03:32:55.367Z,61.67
2023-02-19T03:35:25.159Z,63.10
2023-02-19T03:37:57.042Z,60.67
2023-02-19T03:40:28.384Z,61.57
2023-02-19T03:43:01.101Z,62.30
2023-02-19T03:45:33.937Z,65.93
2023-02-19T03:48:09.683Z,62.43
2023-02-19T03:50:39.939Z,56.07
2023-02-19T03:53:11.849Z,63.03
2023-02-19T03:55:45.898Z,65.30
2023-02-19T03:58:16.560Z,66.07
2023-02-19T04:00:47.303Z,66.17
2023-02-19T04:03:20.222Z,66.07
2023-02-19T04:05:50.556Z,64.23
2023-02-19T04:08:20.320Z,63.60
2023-02-19T04:10:49.679Z,63.43
2023-02-19T04:13:21.591Z,66.37
2023-02-19T04:15:51.166Z,68.87
2023-02-19T04:18:24.184Z,68.73
2023-02-19T04:20:52.633Z,72.27
2023-02-19T04:23:22.656Z,68.03
2023-02-19T04:25:55.280Z,68.73
2023-02-19T04:28:23.704Z,69.10
2023-02-19T04:30:52.142Z,67.80
2023-02-19T04:33:21.946Z,68.20
2023-02-19T04:35:50.319Z,66.00
2023-02-19T04:38:18.729Z,69.80
2023-02-19T04:40:47.287Z,67.20
2023-02-19T04:43:15.684Z,67.73
2023-02-19T04:45:44.146Z,68.20
2023-02-19T04:48:12.763Z,65.50
2023-02-19T04:50:42.589Z,64.03
2023-02-19T04:53:10.986Z,64.67
2023-02-19T04:55:39.527Z,64.50
2023-02-19T04:58:07.924Z,67.37
2023-02-19T05:00:36.391Z,62.93
2023-02-19T05:03:04.827Z,63.87
2023-02-19T05:05:33.292Z,67.80
2023-02-19T05:08:03.081Z,66.27
2023-02-19T05:10:31.480Z,62.53
2023-02-19T05:12:59.869Z,65.03
2023-02-19T05:15:28.257Z,74.33
2023-02-19T05:17:56.967Z,72.00
2023-02-19T05:20:25.433Z,67.73
2023-02-19T05:22:53.839Z,73.07
2023-02-19T05:25:23.680Z,70.10
2023-02-19T05:28:12.185Z,64.33
2023-02-19T05:30:40.599Z,64.87
2023-02-19T05:33:09.078Z,69.30
2023-02-19T05:35:42.140Z,66.73
2023-02-19T05:38:10.626Z,68.77
2023-02-19T05:40:40.625Z,68.03
2023-02-19T05:43:09.692Z,66.60
2023-02-19T05:45:38.723Z,65.77
2023-02-19T05:48:08.088Z,68.70
2023-02-19T05:50:39.782Z,70.13
2023-02-19T05:53:08.393Z,66.50
2023-02-19T05:55:37.626Z,69.80
2023-02-19T05:58:07.455Z,70.90
2023-02-19T06:00:35.868Z,72.23
2023-02-19T06:03:04.264Z,68.10
2023-02-19T06:05:32.680Z,72.30
2023-02-19T06:08:01.048Z,71.07
2023-02-19T06:10:29.494Z,69.37
2023-02-19T06:12:57.892Z,70.20
2023-02-19T06:15:27.680Z,68.27
2023-02-19T06:17:56.082Z,70.80
2023-02-19T06:20:26.045Z,76.20
2023-02-19T06:22:54.758Z,70.93
2023-02-19T06:25:23.152Z,72.17
2023-02-19T06:27:51.585Z,71.63
2023-02-19T06:30:20.039Z,69.63
2023-02-19T06:32:49.851Z,69.03
2023-02-19T06:35:18.250Z,70.30
2023-02-19T06:37:48.218Z,69.83
2023-02-19T06:40:16.665Z,69.03
2023-02-19T06:42:45.110Z,72.20
2023-02-19T06:45:13.584Z,71.40
2023-02-19T06:47:42.098Z,69.20
2023-02-19T06:50:11.958Z,68.40
2023-02-19T06:52:40.360Z,72.27
2023-02-19T06:55:08.768Z,70.37
2023-02-19T06:57:37.160Z,71.23
2023-02-19T07:00:06.128Z,73.43
2023-02-19T07:02:34.513Z,73.43
2023-02-19T07:05:02.903Z,73.07
2023-02-19T07:07:32.695Z,71.20
2023-02-19T07:10:01.107Z,79.00
2023-02-19T07:12:29.538Z,77.23
2023-02-19T07:14:57.927Z,75.43
2023-02-19T07:17:26.326Z,83.13
2023-02-19T07:19:54.739Z,89.97
2023-02-19T07:22:23.127Z,81.67
2023-02-19T07:24:52.865Z,79.47
2023-02-19T07:27:21.453Z,83.67
2023-02-19T07:29:49.812Z,80.50
2023-02-19T07:32:18.184Z,81.93
2023-02-19T07:34:46.607Z,87.70
2023-02-19T07:37:15.005Z,86.87
2023-02-19T07:39:43.390Z,81.10
2023-02-19T07:42:13.516Z,83.10
2023-02-19T07:44:41.959Z,87.10
2023-02-19T07:47:10.428Z,82.73
2023-02-19T07:49:38.848Z,82.40
2023-02-19T07:52:07.270Z,74.87
2023-02-19T07:54:35.670Z,82.57
2023-02-19T07:57:04.092Z,77.87
2023-02-19T07:59:33.974Z,77.07
2023-02-19T08:02:34.315Z,81.07
2023-02-19T08:05:02.716Z,73.87
2023-02-19T08:07:33.662Z,78.20
2023-02-19T08:10:15.954Z,76.17
2023-02-19T08:13:02.217Z,78.87
2023-02-19T08:15:32.184Z,74.00
2023-02-19T08:18:00.560Z,80.63
2023-02-19T08:20:28.946Z,78.67
2023-02-19T08:22:57.393Z,81.50
2023-02-19T08:25:25.917Z,78.03
2023-02-19T08:27:54.310Z,79.27
2023-02-19T08:30:23.745Z,82.87
2023-02-19T08:32:53.604Z,78.83
2023-02-19T08:35:21.988Z,75.03
2023-02-19T08:37:50.422Z,74.60
2023-02-19T08:40:19.199Z,78.83
2023-02-19T08:42:47.577Z,78.80
2023-02-19T08:45:16.128Z,82.23
2023-02-19T08:47:44.801Z,77.77
2023-02-19T08:50:14.598Z,84.33
2023-02-19T08:52:43.004Z,84.27
2023-02-19T08:55:11.425Z,86.37
2023-02-19T08:57:40.012Z,85.03
2023-02-19T09:00:09.960Z,86.33
2023-02-19T09:02:38.352Z,81.83
2023-02-19T09:05:07.099Z,81.50
2023-02-19T09:07:36.905Z,79.27
2023-02-19T09:10:05.476Z,77.53
2023-02-19T09:12:34.263Z,78.87
2023-02-19T09:15:02.743Z,83.37
2023-02-19T09:17:31.136Z,83.70
2023-02-19T09:19:59.508Z,86.60
2023-02-19T09:22:28.027Z,82.97
2023-02-19T09:24:57.810Z,84.83
2023-02-19T09:27:26.206Z,90.17
2023-02-19T09:29:55.138Z,51.83
2023-02-19T09:32:23.752Z,66.60
2023-02-19T09:34:52.215Z,81.80
2023-02-19T09:37:20.682Z,81.17
2023-02-19T09:39:49.067Z,84.03
2023-02-19T09:42:20.348Z,84.83
2023-02-19T09:44:49.772Z,88.87
2023-02-19T09:47:19.547Z,88.07
2023-02-19T09:49:52.118Z,88.83
2023-02-19T09:52:26.131Z,65.73
2023-02-19T09:54:57.749Z,76.03
2023-02-19T09:57:28.216Z,81.87
2023-02-19T10:00:01.613Z,81.17
2023-02-19T10:02:31.317Z,87.20
2023-02-19T10:05:01.669Z,85.30
2023-02-19T10:07:36.640Z,85.80
2023-02-19T10:10:19.854Z,86.93
2023-02-19T10:12:51.141Z,84.13
2023-02-19T10:15:20.681Z,74.63
2023-02-19T10:17:49.112Z,53.03
2023-02-19T10:20:18.916Z,66.60
2023-02-19T10:22:47.623Z,77.80
2023-02-19T10:25:17.028Z,80.50
2023-02-19T10:27:45.828Z,82.70
2023-02-19T10:30:20.270Z,81.07
2023-02-19T10:33:00.088Z,81.43
2023-02-19T10:35:28.611Z,68.40
2023-02-19T10:37:57.116Z,62.10
2023-02-19T10:40:27.638Z,72.77
2023-02-19T10:42:58.827Z,80.63
2023-02-19T10:45:32.912Z,82.70
2023-02-19T10:48:01.870Z,87.87
2023-02-19T10:50:32.628Z,82.47
2023-02-19T10:53:02.001Z,81.47
2023-02-19T10:55:31.868Z,63.67
2023-02-19T10:58:00.545Z,67.33
2023-02-19T11:00:32.979Z,76.47
2023-02-19T11:03:20.925Z,81.67
2023-02-19T11:05:53.461Z,84.03
2023-02-19T11:08:23.767Z,81.03
2023-02-19T11:10:52.440Z,83.63
2023-02-19T11:13:25.876Z,65.57
2023-02-19T11:15:56.706Z,65.70
2023-02-19T11:18:27.344Z,75.53
2023-02-19T11:20:56.829Z,81.10
2023-02-19T11:23:27.649Z,84.93
2023-02-19T11:25:57.410Z,84.40
2023-02-19T11:28:29.552Z,70.10
2023-02-19T11:31:14.690Z,63.53
2023-02-19T11:33:47.248Z,72.70
2023-02-19T11:36:28.686Z,79.23
2023-02-19T11:38:59.227Z,82.80
2023-02-19T11:41:37.954Z,85.50
2023-02-19T11:44:14.073Z,63.17
2023-02-19T11:46:47.127Z,65.57
2023-02-19T11:49:23.241Z,72.27
2023-02-19T11:52:00.973Z,79.00
2023-02-19T11:54:35.236Z,83.97
2023-02-19T11:57:09.105Z,85.17
2023-02-19T11:59:44.158Z,63.00
2023-02-19T12:02:30.203Z,69.23
2023-02-19T12:05:18.920Z,76.83
2023-02-19T12:07:59.309Z,80.27
2023-02-19T12:10:30.104Z,81.93
2023-02-19T12:13:04.065Z,79.37
2023-02-19T12:15:37.070Z,77.47
2023-02-19T12:18:14.597Z,53.40
2023-02-19T12:20:50.591Z,67.40
2023-02-19T12:23:37.508Z,77.37
2023-02-19T12:26:08.814Z,77.53
2023-02-19T12:28:45.848Z,82.60
2023-02-19T12:31:25.276Z,83.60
2023-02-19T12:34:02.425Z,74.90
2023-02-19T12:36:37.390Z,53.80
2023-02-19T12:39:09.629Z,65.57
2023-02-19T12:41:42.191Z,76.20
2023-02-19T12:44:13.578Z,79.57
2023-02-19T12:46:44.342Z,82.70
2023-02-19T12:49:14.236Z,68.00
2023-02-19T12:51:46.550Z,62.63
2023-02-19T12:54:16.838Z,74.33
2023-02-19T12:56:48.761Z,78.10
2023-02-19T12:59:20.307Z,79.80
2023-02-19T13:01:50.727Z,81.30
2023-02-19T13:04:24.632Z,71.03
2023-02-19T13:06:56.082Z,60.83
2023-02-19T13:09:29.217Z,74.83
2023-02-19T13:11:59.184Z,77.57
2023-02-19T13:14:30.412Z,86.07
2023-02-19T13:17:02.484Z,82.97
2023-02-19T13:19:32.186Z,64.07
2023-02-19T13:22:23.474Z,60.10
2023-02-19T13:24:52.486Z,76.30
2023-02-19T13:27:32.841Z,77.93
2023-02-19T13:30:09.953Z,76.20
2023-02-19T13:32:48.655Z,80.20
2023-02-19T13:35:26.652Z,60.47
2023-02-19T13:37:57.245Z,68.30
2023-02-19T13:40:29.915Z,78.50
2023-02-19T13:42:59.841Z,78.73
2023-02-19T13:45:32.784Z,81.57
2023-02-19T13:48:04.560Z,64.73
2023-02-19T13:50:34.315Z,72.57
2023-02-19T13:53:24.296Z,74.37
2023-02-19T13:55:54.046Z,77.47
2023-02-19T13:58:54.905Z,79.33
2023-02-19T14:01:38.141Z,69.03
2023-02-19T14:04:10.451Z,65.20
2023-02-19T14:06:53.708Z,72.33
2023-02-19T14:09:36.976Z,74.27
2023-02-19T14:12:19.610Z,68.77
2023-02-19T14:14:48.840Z,55.50
2023-02-19T14:17:31.304Z,68.10
2023-02-19T14:20:01.064Z,75.77
2023-02-19T14:22:49.851Z,75.83
2023-02-19T14:25:26.283Z,67.33
2023-02-19T14:27:57.108Z,59.47
2023-02-19T14:30:25.800Z,71.47
2023-02-19T14:33:09.692Z,71.30
2023-02-19T14:35:40.889Z,70.60
2023-02-19T14:38:16.271Z,70.83
2023-02-19T14:40:47.125Z,56.93
2023-02-19T14:43:18.148Z,56.70
2023-02-19T14:45:49.082Z,65.37
2023-02-19T14:48:23.545Z,68.70
2023-02-19T14:50:53.887Z,63.40
2023-02-19T14:53:23.914Z,49.57
2023-02-19T14:55:52.755Z,61.10
2023-02-19T14:58:24.082Z,66.80
2023-02-19T15:00:52.563Z,67.57
2023-02-19T15:03:28.843Z,62.60
2023-02-19T15:05:58.673Z,57.23
2023-02-19T15:08:31.235Z,65.43
2023-02-19T15:10:59.881Z,68.83
2023-02-19T15:13:31.518Z,72.27
2023-02-19T15:16:00.122Z,73.80
2023-02-19T15:18:30.074Z,60.13
2023-02-19T15:21:02.869Z,57.43
2023-02-19T15:23:32.525Z,61.40
2023-02-19T15:26:01.225Z,68.13
2023-02-19T15:28:33.730Z,66.63
2023-02-19T15:31:07.754Z,51.63
2023-02-19T15:33:36.428Z,53.90
2023-02-19T15:36:06.401Z,62.93
2023-02-19T15:38:35.121Z,66.97
2023-02-19T15:41:03.901Z,62.60
2023-02-19T15:43:35.768Z,55.27
2023-02-19T15:46:05.996Z,62.90
2023-02-19T15:48:39.769Z,67.77
2023-02-19T15:51:11.583Z,70.67
2023-02-19T15:53:42.890Z,60.67
2023-02-19T15:56:13.867Z,56.17
2023-02-19T15:58:45.604Z,60.03
2023-02-19T16:01:16.959Z,69.27
2023-02-19T16:03:45.453Z,69.37
2023-02-19T16:06:15.187Z,58.17
2023-02-19T16:08:44.227Z,55.17
2023-02-19T16:11:28.603Z,61.97
2023-02-19T16:14:11.840Z,67.43
2023-02-19T16:16:43.853Z,72.60
2023-02-19T16:19:12.598Z,72.30
2023-02-19T16:21:41.134Z,56.93
2023-02-19T16:24:15.710Z,55.10
2023-02-19T16:26:44.757Z,65.40
2023-02-19T16:29:18.723Z,63.77
2023-02-19T16:31:51.164Z,69.80
2023-02-19T16:34:20.578Z,54.63
2023-02-19T16:36:49.351Z,57.73
2023-02-19T16:39:21.844Z,63.67
2023-02-19T16:42:10.935Z,66.57
2023-02-19T16:44:39.368Z,69.27
2023-02-19T16:47:14.432Z,65.13
2023-02-19T16:49:44.226Z,56.10
2023-02-19T16:52:15.855Z,60.17
2023-02-19T16:54:44.647Z,65.90
2023-02-19T16:57:13.347Z,68.03
2023-02-19T16:59:41.738Z,71.77
2023-02-19T17:02:16.453Z,64.03
2023-02-19T17:04:44.888Z,55.40
2023-02-19T17:07:15.046Z,62.67
2023-02-19T17:09:43.484Z,68.47
2023-02-19T17:12:13.140Z,71.23
2023-02-19T17:14:41.552Z,71.17
2023-02-19T17:17:11.361Z,60.43
2023-02-19T17:19:40.409Z,58.73
2023-02-19T17:22:09.343Z,63.97
2023-02-19T17:24:37.771Z,66.97
2023-02-19T17:27:06.227Z,68.73
2023-02-19T17:29:35.213Z,72.20
2023-02-19T17:32:03.804Z,60.63
2023-02-19T17:34:33.573Z,54.47
2023-02-19T17:37:02.010Z,48.40
2023-02-19T17:39:30.442Z,41.60
2023-02-19T17:41:58.982Z,31.87
2023-02-19T17:44:27.391Z,30.83
2023-02-19T17:46:55.815Z,36.47
2023-02-19T17:49:24.460Z,46.90
2023-02-19T17:51:54.288Z,54.67
2023-02-19T17:54:22.677Z,54.73
2023-02-19T17:56:51.109Z,57.13
2023-02-19T17:59:19.487Z,60.30
2023-02-19T18:01:47.937Z,61.10
2023-02-19T18:04:16.363Z,63.63
2023-02-19T18:06:44.801Z,63.50
2023-02-19T18:09:15.296Z,65.60
2023-02-19T18:11:46.424Z,65.17
2023-02-19T18:14:14.836Z,64.00
2023-02-19T18:16:49.685Z,66.93
2023-02-19T18:19:18.618Z,68.83
2023-02-19T18:21:47.065Z,67.17
2023-02-19T18:24:16.917Z,65.23
2023-02-19T18:26:45.423Z,66.03
2023-02-19T18:29:14.149Z,67.37
2023-02-19T18:31:42.685Z,66.20
2023-02-19T18:34:17.784Z,67.43
2023-02-19T18:36:46.451Z,64.67
2023-02-19T18:39:14.847Z,67.90
2023-02-19T18:41:48.051Z,65.87
2023-02-19T18:44:19.085Z,67.40
2023-02-19T18:46:47.497Z,67.70
2023-02-19T18:49:16.166Z,66.73
2023-02-19T18:51:44.718Z,64.73
2023-02-19T18:54:13.104Z,67.70
2023-02-19T18:56:46.295Z,68.73
2023-02-19T18:59:15.346Z,64.33
2023-02-19T19:01:44.236Z,65.87
2023-02-19T19:04:12.969Z,67.67
2023-02-19T19:06:41.372Z,66.10
2023-02-19T19:09:09.791Z,63.23
2023-02-19T19:11:38.371Z,64.00
2023-02-19T19:14:08.162Z,68.67
2023-02-19T19:16:36.555Z,66.67
2023-02-19T19:19:04.988Z,66.17
2023-02-19T19:21:33.431Z,65.17
2023-02-19T19:24:01.865Z,65.97
2023-02-19T19:26:30.345Z,66.33
2023-02-19T19:28:58.776Z,66.93
2023-02-19T19:31:35.005Z,64.13
2023-02-19T19:34:03.543Z,62.63
2023-02-19T19:36:32.008Z,60.40
2023-02-19T19:39:00.477Z,62.83
2023-02-19T19:41:28.875Z,63.43
2023-02-19T19:43:57.301Z,64.53
2023-02-19T19:46:25.848Z,61.97
2023-02-19T19:48:55.772Z,60.97
2023-02-19T19:51:24.372Z,62.83
2023-02-19T19:53:52.845Z,62.07
2023-02-19T19:56:21.263Z,60.73
2023-02-19T19:58:49.796Z,64.13
2023-02-19T20:01:21.124Z,63.97
2023-02-19T20:03:51.014Z,63.73
2023-02-19T20:06:27.623Z,67.13
2023-02-19T20:08:56.166Z,66.37
2023-02-19T20:11:24.858Z,67.17
2023-02-19T20:13:53.280Z,66.07
2023-02-19T20:16:25.405Z,68.23
2023-02-19T20:18:53.863Z,67.33
2023-02-19T20:21:22.249Z,70.87
2023-02-19T20:23:52.062Z,65.83
2023-02-19T20:26:24.472Z,65.93
2023-02-19T20:28:52.884Z,70.57
2023-02-19T20:31:21.688Z,70.73
2023-02-19T20:33:51.317Z,71.80
2023-02-19T20:36:20.077Z,70.57
2023-02-19T20:38:48.924Z,67.47
2023-02-19T20:41:18.766Z,70.33
2023-02-19T20:43:47.171Z,66.97
2023-02-19T20:46:15.760Z,67.87
2023-02-19T20:48:44.277Z,64.47
2023-02-19T20:51:12.751Z,64.43
2023-02-19T20:53:43.205Z,63.60
2023-02-19T20:56:12.692Z,64.77
2023-02-19T20:58:44.090Z,62.23
2023-02-19T21:01:12.876Z,59.63
2023-02-19T21:03:41.266Z,63.27
2023-02-19T21:06:10.089Z,64.03
2023-02-19T21:08:38.885Z,62.43
2023-02-19T21:11:07.331Z,59.80
2023-02-19T21:13:36.154Z,62.97
2023-02-19T21:16:06.177Z,61.63
2023-02-19T21:18:34.559Z,60.97
2023-02-19T21:21:02.938Z,67.00
2023-02-19T21:23:31.390Z,69.13
2023-02-19T21:25:59.882Z,67.30
2023-02-19T21:28:28.313Z,69.50
2023-02-19T21:30:56.808Z,72.60
2023-02-19T21:33:26.585Z,73.00
2023-02-19T21:35:55.057Z,72.20
2023-02-19T21:38:23.475Z,74.50
2023-02-19T21:40:51.968Z,73.43
2023-02-19T21:43:20.375Z,77.10
2023-02-19T21:45:48.854Z,77.40
2023-02-19T21:48:17.708Z,79.60
2023-02-19T21:50:47.564Z,76.93
2023-02-19T21:53:16.051Z,79.17
2023-02-19T21:55:57.973Z,75.23
2023-02-19T21:58:27.288Z,77.43
2023-02-19T22:00:56.392Z,79.97
2023-02-19T22:03:26.448Z,78.77
2023-02-19T22:05:56.511Z,79.93
2023-02-19T22:08:24.889Z,76.77
2023-02-19T22:10:53.261Z,79.70
2023-02-19T22:13:21.764Z,77.90
2023-02-19T22:15:50.174Z,77.60
2023-02-19T22:18:18.547Z,74.17
2023-02-19T22:20:47.056Z,74.33
2023-02-19T22:23:16.818Z,71.30
2023-02-19T22:25:45.220Z,74.17
2023-02-19T22:28:13.749Z,74.90
2023-02-19T22:30:42.918Z,72.40
2023-02-19T22:33:11.415Z,76.17
2023-02-19T22:35:39.842Z,77.60
2023-02-19T22:38:08.241Z,77.77
2023-02-19T22:40:38.044Z,79.13
2023-02-19T22:43:06.487Z,75.73
2023-02-19T22:45:34.960Z,75.40
2023-02-19T22:48:03.394Z,75.33
2023-02-19T22:50:32.186Z,79.80
2023-02-19T22:53:00.679Z,80.37
2023-02-19T22:55:29.045Z,81.07
2023-02-19T22:57:58.856Z,79.37
2023-02-19T23:00:27.399Z,83.37
2023-02-19T23:02:55.837Z,83.23
2023-02-19T23:05:25.508Z,82.70
2023-02-19T23:07:53.982Z,81.40
2023-02-19T23:10:23.296Z,82.47
2023-02-19T23:12:51.707Z,79.60
2023-02-19T23:15:21.577Z,80.27
2023-02-19T23:17:49.988Z,81.00
2023-02-19T23:20:18.880Z,80.07
2023-02-19T23:22:47.278Z,78.23
2023-02-19T23:25:15.704Z,78.63
2023-02-19T23:27:44.100Z,82.43
2023-02-19T23:30:12.944Z,81.23
2023-02-19T23:32:42.777Z,82.53
2023-02-19T23:35:11.221Z,79.80
2023-02-19T23:37:39.600Z,82.77
2023-02-19T23:40:08.601Z,83.57
2023-02-19T23:42:37.530Z,84.77
2023-02-19T23:45:06.109Z,86.77
2023-02-19T23:47:34.484Z,85.47
2023-02-19T23:50:04.276Z,86.47
2023-02-19T23:52:32.743Z,85.93
2023-02-19T23:55:01.160Z,84.67
2023-02-19T23:57:29.609Z,88.73
2023-02-19T23:59:57.989Z,86.43
